createdAt,value
2023-02-09T00:00:54.619Z,26.17
2023-02-09T00:03:57.214Z,24.75
2023-02-09T00:07:00.617Z,23.20
2023-02-09T00:10:03.596Z,25.75
2023-02-09T00:13:23.815Z,24.12
2023-02-09T00:16:26.186Z,23.73
2023-02-09T00:19:28.938Z,24.08
2023-02-09T00:22:30.602Z,24.90
2023-02-09T00:25:32.361Z,25.52
2023-02-09T00:28:34.465Z,28.25
2023-02-09T00:31:36.271Z,33.17
2023-02-09T00:34:38.685Z,34.35
2023-02-09T00:37:42.005Z,36.67
2023-02-09T00:40:44.105Z,32.30
2023-02-09T00:43:45.938Z,29.95
2023-02-09T00:46:49.118Z,30.17
2023-02-09T00:49:50.807Z,29.25
2023-02-09T00:52:53.201Z,26.77
2023-02-09T00:55:54.876Z,28.58
2023-02-09T00:58:56.541Z,27.23
2023-02-09T01:01:58.179Z,26.37
2023-02-09T01:05:00.040Z,27.70
2023-02-09T01:08:01.706Z,29.27
2023-02-09T01:11:14.018Z,27.65
2023-02-09T01:14:16.535Z,28.70
2023-02-09T01:17:18.237Z,24.52
2023-02-09T01:20:19.961Z,23.58
2023-02-09T01:23:21.652Z,22.92
2023-02-09T01:26:23.868Z,23.80
2023-02-09T01:29:25.622Z,24.92
2023-02-09T01:32:27.722Z,23.10
2023-02-09T01:35:31.982Z,22.45
2023-02-09T01:38:34.022Z,22.02
2023-02-09T01:41:35.980Z,20.73
2023-02-09T01:44:37.559Z,21.80
2023-02-09T01:47:47.009Z,23.10
2023-02-09T01:50:51.745Z,23.35
2023-02-09T01:53:53.806Z,26.33
2023-02-09T01:57:02.697Z,26.55
2023-02-09T02:00:09.517Z,25.15
2023-02-09T02:03:16.820Z,27.60
2023-02-09T02:06:19.153Z,26.10
2023-02-09T02:09:21.462Z,27.37
2023-02-09T02:12:24.353Z,25.80
2023-02-09T02:15:37.074Z,25.58
2023-02-09T02:18:38.710Z,22.98
2023-02-09T02:21:40.290Z,24.60
2023-02-09T02:24:50.969Z,25.90
2023-02-09T02:28:09.347Z,25.05
2023-02-09T02:31:29.018Z,21.70
2023-02-09T02:35:08.419Z,23.45
2023-02-09T02:38:19.369Z,22.75
2023-02-09T02:41:23.976Z,23.38
2023-02-09T02:44:29.629Z,22.48
2023-02-09T02:47:34.773Z,23.02
2023-02-09T02:50:43.853Z,22.13
2023-02-09T02:53:51.089Z,22.77
2023-02-09T02:57:03.408Z,23.23
2023-02-09T03:00:12.561Z,21.30
2023-02-09T03:03:19.747Z,21.87
2023-02-09T03:06:21.433Z,21.45
2023-02-09T03:09:23.194Z,21.23
2023-02-09T03:12:33.664Z,21.65
2023-02-09T03:15:41.422Z,20.48
2023-02-09T03:19:12.302Z,21.52
2023-02-09T03:22:29.769Z,20.50
2023-02-09T03:25:45.704Z,22.33
2023-02-09T03:28:52.658Z,21.75
2023-02-09T03:31:55.095Z,21.10
2023-02-09T03:34:57.218Z,20.23
2023-02-09T03:37:58.921Z,20.40
2023-02-09T03:41:00.573Z,20.60
2023-02-09T03:44:20.932Z,20.62
2023-02-09T03:47:22.697Z,21.92
2023-02-09T03:50:24.467Z,21.83
2023-02-09T03:53:26.200Z,23.35
2023-02-09T03:56:27.847Z,24.23
2023-02-09T03:59:29.798Z,24.00
2023-02-09T04:02:31.577Z,26.27
2023-02-09T04:05:33.320Z,23.98
2023-02-09T04:08:34.968Z,23.65
2023-02-09T04:11:36.633Z,23.65
2023-02-09T04:14:38.316Z,22.73
2023-02-09T04:17:39.959Z,23.17
2023-02-09T04:20:41.765Z,25.75
2023-02-09T04:23:43.484Z,28.20
2023-02-09T04:26:45.131Z,24.67
2023-02-09T04:29:46.789Z,23.85
2023-02-09T04:32:48.440Z,46.13
2023-02-09T04:35:50.776Z,33.42
2023-02-09T04:38:52.513Z,36.20
2023-02-09T04:41:54.219Z,36.83
2023-02-09T04:44:55.905Z,30.92
2023-02-09T04:47:57.552Z,25.20
2023-02-09T04:50:59.248Z,44.63
2023-02-09T04:54:00.938Z,34.35
2023-02-09T04:57:22.007Z,34.13
2023-02-09T05:00:23.713Z,38.33
2023-02-09T05:03:26.104Z,35.83
2023-02-09T05:06:28.050Z,41.95
2023-02-09T05:09:29.771Z,60.65
2023-02-09T05:12:31.446Z,39.00
2023-02-09T05:15:33.102Z,36.60
2023-02-09T05:18:36.130Z,34.88
2023-02-09T05:21:37.744Z,34.60
2023-02-09T05:24:39.439Z,32.45
2023-02-09T05:27:41.103Z,30.33
2023-02-09T05:30:42.875Z,32.15
2023-02-09T05:33:44.753Z,27.67
2023-02-09T05:36:47.818Z,27.40
2023-02-09T05:39:51.138Z,25.73
2023-02-09T05:42:52.826Z,28.60
2023-02-09T05:45:54.491Z,35.53
2023-02-09T05:48:56.247Z,28.55
2023-02-09T05:51:57.928Z,32.17
2023-02-09T05:54:59.581Z,48.55
2023-02-09T05:58:01.311Z,104.75
2023-02-09T06:01:03.511Z,54.50
2023-02-09T06:04:05.623Z,30.83
2023-02-09T06:07:07.288Z,26.27
2023-02-09T06:10:09.382Z,27.67
2023-02-09T06:13:11.025Z,38.40
2023-02-09T06:16:12.766Z,36.38
2023-02-09T06:19:15.975Z,39.63
2023-02-09T06:22:17.637Z,30.70
2023-02-09T06:25:19.291Z,35.22
2023-02-09T06:28:21.144Z,29.95
2023-02-09T06:31:23.347Z,32.75
2023-02-09T06:34:25.827Z,28.15
2023-02-09T06:37:27.530Z,25.70
2023-02-09T06:40:29.376Z,37.05
2023-02-09T06:43:31.404Z,47.08
2023-02-09T06:46:33.601Z,58.40
2023-02-09T06:49:35.419Z,41.60
2023-02-09T06:52:37.467Z,41.70
2023-02-09T06:55:39.164Z,43.92
2023-02-09T06:58:41.796Z,41.72
2023-02-09T07:01:43.620Z,41.58
2023-02-09T07:04:45.269Z,37.00
2023-02-09T07:07:47.175Z,32.08
2023-02-09T07:10:48.805Z,33.03
2023-02-09T07:13:50.504Z,33.42
2023-02-09T07:16:52.103Z,32.75
2023-02-09T07:19:54.254Z,35.15
2023-02-09T07:22:55.893Z,33.53
2023-02-09T07:26:02.091Z,33.92
2023-02-09T07:29:03.839Z,40.63
2023-02-09T07:32:07.202Z,49.88
2023-02-09T07:35:08.916Z,78.37
2023-02-09T07:38:10.658Z,70.20
2023-02-09T07:41:18.764Z,48.90
2023-02-09T07:44:20.543Z,34.88
2023-02-09T07:47:22.205Z,34.83
2023-02-09T07:50:23.872Z,26.87
2023-02-09T07:53:27.086Z,24.58
2023-02-09T07:56:29.723Z,27.58
2023-02-09T07:59:31.871Z,27.70
2023-02-09T08:02:37.612Z,30.08
2023-02-09T08:05:45.557Z,30.50
2023-02-09T08:08:49.516Z,30.12
2023-02-09T08:12:02.640Z,25.37
2023-02-09T08:15:05.467Z,22.90
2023-02-09T08:18:17.988Z,24.42
2023-02-09T08:21:20.577Z,25.73
2023-02-09T08:24:22.259Z,20.88
2023-02-09T08:27:24.175Z,21.27
2023-02-09T08:30:25.921Z,21.05
2023-02-09T08:33:28.156Z,21.67
2023-02-09T08:36:31.150Z,21.30
2023-02-09T08:39:32.834Z,21.77
2023-02-09T08:42:34.713Z,18.87
2023-02-09T08:45:38.053Z,20.52
2023-02-09T08:48:41.884Z,19.87
2023-02-09T08:51:43.532Z,17.90
2023-02-09T08:54:45.215Z,22.48
2023-02-09T08:57:47.017Z,19.73
2023-02-09T09:00:48.759Z,18.98
2023-02-09T09:03:50.584Z,18.37
2023-02-09T09:06:52.331Z,21.10
2023-02-09T09:09:54.040Z,19.15
2023-02-09T09:12:55.770Z,20.12
2023-02-09T09:15:57.595Z,25.52
2023-02-09T09:18:59.390Z,19.95
2023-02-09T09:22:03.496Z,18.95
2023-02-09T09:25:05.910Z,19.00
2023-02-09T09:28:09.063Z,20.33
2023-02-09T09:31:14.319Z,21.58
2023-02-09T09:34:16.263Z,18.75
2023-02-09T09:37:17.880Z,20.58
2023-02-09T09:40:29.515Z,20.83
2023-02-09T09:43:38.558Z,20.75
2023-02-09T09:46:43.867Z,20.52
2023-02-09T09:49:46.214Z,18.33
2023-02-09T09:52:55.970Z,19.50
2023-02-09T09:56:02.838Z,17.75
2023-02-09T09:59:05.293Z,18.23
2023-02-09T10:02:30.358Z,19.45
2023-02-09T10:05:39.833Z,18.58
2023-02-09T10:09:04.314Z,18.27
2023-02-09T10:12:48.542Z,17.92
2023-02-09T10:15:53.855Z,16.95
2023-02-09T10:18:58.631Z,16.35
2023-02-09T10:22:00.376Z,15.48
2023-02-09T10:25:02.756Z,17.08
2023-02-09T10:28:06.534Z,15.95
2023-02-09T10:31:31.704Z,16.70
2023-02-09T10:34:38.978Z,13.00
2023-02-09T10:37:40.745Z,14.43
2023-02-09T10:40:42.629Z,15.30
2023-02-09T10:43:52.729Z,12.85
2023-02-09T10:47:09.758Z,11.43
2023-02-09T10:50:11.359Z,13.07
2023-02-09T10:53:20.630Z,11.00
2023-02-09T10:56:25.763Z,9.77
2023-02-09T10:59:27.435Z,10.05
2023-02-09T11:02:41.960Z,10.82
2023-02-09T11:05:46.784Z,9.95
2023-02-09T11:08:58.674Z,13.52
2023-02-09T11:12:01.464Z,9.40
2023-02-09T11:15:03.336Z,13.68
2023-02-09T11:18:28.539Z,11.80
2023-02-09T11:21:45.266Z,10.45
2023-02-09T11:25:06.753Z,10.50
2023-02-09T11:28:28.525Z,10.23
2023-02-09T11:32:01.519Z,10.93
2023-02-09T11:35:11.230Z,16.95
2023-02-09T11:38:17.294Z,11.27
2023-02-09T11:41:49.557Z,10.52
2023-02-09T11:45:01.953Z,9.80
2023-02-09T11:48:09.775Z,9.30
2023-02-09T11:51:22.491Z,9.80
2023-02-09T11:54:33.145Z,9.32
2023-02-09T11:57:42.299Z,9.02
2023-02-09T12:01:07.005Z,8.75
2023-02-09T12:04:21.360Z,9.68
2023-02-09T12:07:41.777Z,8.48
2023-02-09T12:10:56.090Z,8.15
2023-02-09T12:13:57.643Z,8.45
2023-02-09T12:17:16.388Z,8.55
2023-02-09T12:20:27.801Z,8.23
2023-02-09T12:23:43.702Z,7.85
2023-02-09T12:26:55.103Z,8.25
2023-02-09T12:29:56.810Z,8.27
2023-02-09T12:33:15.163Z,9.32
2023-02-09T12:36:16.954Z,8.05
2023-02-09T12:39:24.358Z,7.53
2023-02-09T12:42:28.288Z,7.87
2023-02-09T12:45:37.721Z,7.53
2023-02-09T12:48:49.760Z,7.50
2023-02-09T12:51:53.938Z,8.15
2023-02-09T12:54:59.157Z,8.63
2023-02-09T12:58:00.804Z,7.15
2023-02-09T13:01:02.952Z,8.13
2023-02-09T13:04:07.948Z,6.47
2023-02-09T13:07:30.355Z,7.50
2023-02-09T13:10:37.878Z,7.57
2023-02-09T13:13:58.683Z,7.32
2023-02-09T13:17:09.060Z,7.82
2023-02-09T13:20:49.291Z,7.18
2023-02-09T13:24:10.723Z,8.68
2023-02-09T13:27:22.027Z,8.13
2023-02-09T13:30:26.516Z,7.50
2023-02-09T13:34:03.029Z,7.85
2023-02-09T13:37:42.374Z,8.63
2023-02-09T13:40:49.209Z,8.93
2023-02-09T13:43:50.876Z,7.87
2023-02-09T13:46:55.877Z,6.62
2023-02-09T13:50:00.323Z,8.10
2023-02-09T13:53:10.461Z,8.85
2023-02-09T13:56:15.323Z,7.62
2023-02-09T13:59:17.724Z,9.90
2023-02-09T14:02:26.857Z,7.37
2023-02-09T14:05:37.383Z,9.60
2023-02-09T14:08:41.008Z,6.78
2023-02-09T14:11:51.994Z,7.22
2023-02-09T14:15:16.230Z,7.37
2023-02-09T14:18:46.503Z,7.35
2023-02-09T14:21:48.266Z,8.68
2023-02-09T14:24:49.946Z,9.55
2023-02-09T14:27:52.569Z,8.50
2023-02-09T14:30:54.393Z,8.27
2023-02-09T14:33:57.185Z,9.95
2023-02-09T14:37:20.811Z,10.73
2023-02-09T14:40:28.459Z,8.25
2023-02-09T14:43:30.284Z,14.13
2023-02-09T14:46:54.908Z,11.07
2023-02-09T14:50:00.111Z,10.48
2023-02-09T14:53:10.912Z,11.32
2023-02-09T14:56:23.600Z,8.93
2023-02-09T14:59:25.265Z,8.30
2023-02-09T15:02:28.085Z,15.43
2023-02-09T15:05:29.978Z,9.65
2023-02-09T15:08:35.328Z,10.73
2023-02-09T15:11:55.614Z,9.60
2023-02-09T15:15:00.302Z,10.07
2023-02-09T15:18:02.031Z,10.50
2023-02-09T15:21:03.899Z,11.93
2023-02-09T15:24:06.024Z,13.93
2023-02-09T15:27:15.874Z,13.95
2023-02-09T15:30:32.827Z,16.33
2023-02-09T15:33:34.655Z,17.67
2023-02-09T15:36:37.541Z,17.27
2023-02-09T15:39:39.484Z,11.43
2023-02-09T15:43:00.515Z,11.70
2023-02-09T15:46:21.381Z,17.48
2023-02-09T15:49:23.191Z,16.92
2023-02-09T15:52:25.181Z,15.13
2023-02-09T15:55:27.665Z,28.10
2023-02-09T15:58:35.995Z,19.58
2023-02-09T16:01:37.730Z,15.43
2023-02-09T16:04:40.162Z,14.60
2023-02-09T16:07:42.006Z,17.42
2023-02-09T16:10:44.811Z,22.65
2023-02-09T16:13:47.388Z,29.90
2023-02-09T16:16:50.097Z,30.25
2023-02-09T16:19:52.288Z,31.05
2023-02-09T16:23:11.818Z,28.00
2023-02-09T16:26:21.138Z,22.37
2023-02-09T16:29:27.146Z,22.48
2023-02-09T16:32:29.267Z,19.85
2023-02-09T16:35:32.052Z,19.50
2023-02-09T16:38:34.901Z,16.83
2023-02-09T16:41:50.783Z,18.62
2023-02-09T16:44:53.700Z,19.58
2023-02-09T16:47:59.326Z,21.42
2023-02-09T16:51:02.220Z,26.27
2023-02-09T16:54:04.991Z,29.58
2023-02-09T16:57:07.020Z,28.50
2023-02-09T17:00:10.149Z,29.45
2023-02-09T17:03:44.516Z,25.05
2023-02-09T17:06:51.507Z,43.25
2023-02-09T17:09:54.892Z,39.13
2023-02-09T17:13:02.554Z,39.75
2023-02-09T17:16:06.721Z,45.17
2023-02-09T17:19:15.284Z,44.67
2023-02-09T17:22:18.056Z,39.55
2023-02-09T17:25:23.059Z,33.78
2023-02-09T17:28:27.133Z,31.17
2023-02-09T17:31:47.070Z,35.88
2023-02-09T17:34:53.636Z,27.48
2023-02-09T17:37:56.317Z,23.67
2023-02-09T17:41:01.553Z,22.23
2023-02-09T17:44:26.522Z,22.10
2023-02-09T17:47:36.884Z,23.05
2023-02-09T17:50:42.524Z,22.52
2023-02-09T17:53:45.941Z,16.98
2023-02-09T17:56:49.482Z,13.07
2023-02-09T17:59:51.985Z,10.02
2023-02-09T18:02:54.926Z,11.90
2023-02-09T18:06:04.520Z,10.70
2023-02-09T18:09:12.814Z,13.93
2023-02-09T18:12:27.049Z,13.48
2023-02-09T18:15:34.133Z,17.37
2023-02-09T18:18:36.853Z,19.25
2023-02-09T18:21:50.721Z,15.85
2023-02-09T18:24:54.935Z,13.88
2023-02-09T18:27:57.072Z,11.63
2023-02-09T18:30:59.755Z,12.77
2023-02-09T18:34:02.609Z,14.15
2023-02-09T18:37:04.930Z,16.73
2023-02-09T18:40:07.673Z,14.98
2023-02-09T18:43:16.257Z,14.80
2023-02-09T18:46:20.217Z,12.65
2023-02-09T18:49:25.014Z,11.80
2023-02-09T18:52:27.563Z,11.00
2023-02-09T18:55:32.996Z,12.30
2023-02-09T18:58:37.186Z,12.32
2023-02-09T19:01:41.120Z,12.77
2023-02-09T19:04:44.110Z,19.17
2023-02-09T19:07:47.792Z,30.65
2023-02-09T19:10:50.551Z,25.73
2023-02-09T19:14:11.341Z,26.95
2023-02-09T19:17:19.980Z,25.67
2023-02-09T19:20:26.844Z,28.33
2023-02-09T19:23:32.951Z,28.12
2023-02-09T19:26:35.699Z,30.08
2023-02-09T19:29:43.727Z,27.50
2023-02-09T19:32:45.897Z,22.65
2023-02-09T19:36:00.047Z,23.75
2023-02-09T19:39:19.594Z,20.95
2023-02-09T19:42:23.640Z,17.30
2023-02-09T19:45:26.800Z,16.20
2023-02-09T19:48:30.498Z,16.77
2023-02-09T19:51:33.333Z,19.12
2023-02-09T19:54:42.101Z,24.10
2023-02-09T19:57:47.519Z,31.12
2023-02-09T20:00:51.667Z,35.67
2023-02-09T20:03:55.027Z,40.12
2023-02-09T20:06:59.064Z,33.28
2023-02-09T20:10:01.622Z,37.03
2023-02-09T20:13:06.078Z,33.78
2023-02-09T20:16:14.737Z,30.30
2023-02-09T20:19:17.470Z,35.25
2023-02-09T20:22:20.365Z,34.47
2023-02-09T20:25:24.610Z,33.40
2023-02-09T20:28:30.975Z,33.65
2023-02-09T20:31:38.121Z,38.83
2023-02-09T20:34:42.742Z,46.63
2023-02-09T20:37:45.586Z,40.55
2023-02-09T20:40:50.032Z,31.98
2023-02-09T20:44:11.017Z,32.50
2023-02-09T20:47:13.994Z,31.80
2023-02-09T20:50:18.367Z,28.73
2023-02-09T20:53:20.796Z,26.80
2023-02-09T20:56:24.384Z,32.25
2023-02-09T20:59:27.590Z,25.90
2023-02-09T21:02:30.416Z,21.50
2023-02-09T21:05:32.564Z,18.10
2023-02-09T21:08:39.146Z,16.23
2023-02-09T21:11:47.019Z,18.55
2023-02-09T21:14:51.136Z,17.25
2023-02-09T21:17:55.299Z,19.67
2023-02-09T21:20:57.304Z,23.33
2023-02-09T21:24:00.493Z,22.08
2023-02-09T21:27:02.465Z,23.95
2023-02-09T21:30:05.357Z,21.42
2023-02-09T21:33:07.318Z,20.80
2023-02-09T21:36:09.796Z,22.37
2023-02-09T21:39:12.124Z,22.20
2023-02-09T21:45:27.792Z,20.05
2023-02-09T21:48:29.821Z,21.27
2023-02-09T21:51:31.567Z,20.10
2023-02-09T21:54:34.011Z,22.85
2023-02-09T21:57:36.579Z,24.35
2023-02-09T22:00:38.234Z,28.27
2023-02-09T22:03:42.570Z,36.20
2023-02-09T22:06:44.216Z,38.88
2023-02-09T22:09:45.903Z,37.20
2023-02-09T22:12:47.556Z,27.40
2023-02-09T22:15:49.204Z,42.28
2023-02-09T22:18:51.702Z,56.30
2023-02-09T22:21:53.530Z,44.88
2023-02-09T22:24:57.225Z,32.75
2023-02-09T22:27:58.892Z,22.52
2023-02-09T22:31:08.543Z,29.95
2023-02-09T22:34:11.289Z,31.35
2023-02-09T22:37:13.032Z,27.87
2023-02-09T22:40:15.121Z,24.70
2023-02-09T22:43:16.737Z,22.52
2023-02-09T22:46:20.116Z,20.15
2023-02-09T22:49:22.261Z,22.08
2023-02-09T22:52:24.201Z,21.55
2023-02-09T22:55:26.334Z,19.92
2023-02-09T22:58:27.998Z,20.23
2023-02-09T23:01:29.965Z,20.08
2023-02-09T23:04:32.974Z,21.08
2023-02-09T23:07:34.679Z,20.70
2023-02-09T23:10:36.338Z,23.05
2023-02-09T23:13:38.556Z,21.15
2023-02-09T23:16:42.051Z,22.23
2023-02-09T23:19:44.948Z,20.80
2023-02-09T23:22:46.599Z,22.62
2023-02-09T23:25:51.840Z,22.33
2023-02-09T23:28:57.192Z,24.05
2023-02-09T23:31:59.000Z,24.25
2023-02-09T23:38:07.502Z,27.00
2023-02-09T23:41:12.048Z,27.05
2023-02-09T23:44:13.934Z,26.48
2023-02-09T23:47:15.641Z,23.35
2023-02-09T23:50:17.528Z,24.35
2023-02-09T23:53:19.201Z,30.27
2023-02-09T23:56:21.671Z,26.42
2023-02-09T23:59:23.525Z,25.35
